PWSweather.com
Personal Weather Stations
Station Observations
KMIEASTT1
Tawas Bay, East Tawas, MI 48730

Tawas BayEast Tawas, MI 48730

Lat: 44.28, Lon: -83.48

Elevation: 600

Station Type: Davis VantagePro

http://www.tawasbayweather.com

Latest ConditionsUpdated 4:30:11 PM EDT Monday, Sep 26, 2016
Currently Today's Max Today's Min Today's Average
Temperature 63.0°F17.2°C 64.0°F17.8°C 58.9°F14.9°C 61.8°F16.6°C
Dew Point 51.1°F10.6°C 61.2°F16.2°C 50.4°F10.2°C 57.4°F14.1°C
Winds 6.0 mph WSW9.7 kmh WSW 21.0 mph SSE33.8 kmh SSE - 10.5 mph 16.9 kmh
Wind Gusts 20.0 mph32.2 kmh 23.0 mph37.0 kmh - -
Humidity 65% 96% 64% 86%
Pressure 29.77 in1008.1 mb 29.96 in1014.6 mb 29.76 in1007.8 mb -
Hour Temp Dew Point Humidity Winds Wind Gusts Pressure Precip Precip Rate Daily Precip Total
04:30 PM 63.0°F17.2°C 51.1°F10.6°C 65% 6.0 mph WSW9.7 kmh WSW 20.0 mph32.2 kmh 29.77 in1008.1 mb 0.00 in0.0 mm 0.00 in0.0 mm 0.41 in10.4 mm
04:15 PM 63.6°F17.6°C 51.2°F10.7°C 64% 14.0 mph WSW22.5 kmh WSW 21.0 mph33.8 kmh 29.77 in1008.1 mb 0.00 in0.0 mm 0.00 in0.0 mm 0.41 in10.4 mm
04:00 PM 62.9°F17.2°C 51.4°F10.8°C 66% 8.0 mph WSW12.9 kmh WSW 15.0 mph24.1 kmh 29.77 in1008.1 mb 0.00 in0.0 mm 0.00 in0.0 mm 0.41 in10.4 mm
03:45 PM 62.7°F17.1°C 50.4°F10.2°C 64% 8.0 mph W12.9 kmh W 18.0 mph29.0 kmh 29.77 in1008.1 mb 0.00 in0.0 mm 0.00 in0.0 mm 0.41 in10.4 mm
03:30 PM 62.9°F17.2°C 51.0°F10.6°C 65% 12.0 mph WSW19.3 kmh WSW 17.0 mph27.4 kmh 29.77 in1008.1 mb 0.00 in0.0 mm 0.00 in0.0 mm 0.41 in10.4 mm
03:15 PM 62.9°F17.2°C 53.8°F12.1°C 72% 16.0 mph WSW25.7 kmh WSW 19.0 mph30.6 kmh 29.76 in1007.8 mb 0.00 in0.0 mm 0.00 in0.0 mm 0.41 in10.4 mm
03:00 PM 61.9°F16.6°C 54.3°F12.4°C 76% 11.0 mph WSW17.7 kmh WSW 18.0 mph29.0 kmh 29.77 in1008.1 mb 0.00 in0.0 mm 0.00 in0.0 mm 0.41 in10.4 mm
02:45 PM 61.5°F16.4°C 54.6°F12.6°C 78% 10.0 mph WSW16.1 kmh WSW 14.0 mph22.5 kmh 29.77 in1008.1 mb 0.00 in0.0 mm 0.00 in0.0 mm 0.41 in10.4 mm
02:30 PM 61.4°F16.3°C 55.2°F12.9°C 80% 11.0 mph WSW17.7 kmh WSW 13.0 mph20.9 kmh 29.77 in1008.1 mb 0.00 in0.0 mm 0.00 in0.0 mm 0.41 in10.4 mm
02:15 PM 61.3°F16.3°C 55.1°F12.8°C 80% 11.0 mph WSW17.7 kmh WSW 17.0 mph27.4 kmh 29.78 in1008.5 mb 0.00 in0.0 mm 0.00 in0.0 mm 0.41 in10.4 mm
02:00 PM 60.8°F16.0°C 54.9°F12.7°C 81% 11.0 mph WSW17.7 kmh WSW 14.0 mph22.5 kmh 29.78 in1008.5 mb 0.00 in0.0 mm 0.00 in0.0 mm 0.41 in10.4 mm
01:45 PM 60.4°F15.8°C 55.2°F12.9°C 83% 13.0 mph WSW20.9 kmh WSW 19.0 mph30.6 kmh 29.79 in1008.8 mb 0.00 in0.0 mm 0.00 in0.0 mm 0.41 in10.4 mm
01:30 PM 60.2°F15.7°C 55.0°F12.8°C 83% 13.0 mph SW20.9 kmh SW 17.0 mph27.4 kmh 29.79 in1008.8 mb 0.00 in0.0 mm 0.00 in0.0 mm 0.41 in10.4 mm
01:15 PM 60.0°F15.6°C 55.5°F13.1°C 85% 14.0 mph WSW22.5 kmh WSW 16.0 mph25.7 kmh 29.79 in1008.8 mb 0.00 in0.0 mm 0.00 in0.0 mm 0.41 in10.4 mm
01:00 PM 59.7°F15.4°C 54.9°F12.7°C 84% 12.0 mph WSW19.3 kmh WSW 16.0 mph25.7 kmh 29.80 in1009.1 mb 0.00 in0.0 mm 0.00 in0.0 mm 0.41 in10.4 mm
12:45 PM 59.4°F15.2°C 55.2°F12.9°C 86% 11.0 mph SW17.7 kmh SW 15.0 mph24.1 kmh 29.80 in1009.1 mb 0.00 in0.0 mm 0.00 in0.0 mm 0.41 in10.4 mm
12:30 PM 59.4°F15.2°C 55.2°F12.9°C 86% 10.0 mph WSW16.1 kmh WSW 15.0 mph24.1 kmh 29.80 in1009.1 mb 0.00 in0.0 mm 0.00 in0.0 mm 0.41 in10.4 mm
12:15 PM 59.2°F15.1°C 55.0°F12.8°C 86% 10.0 mph WSW16.1 kmh WSW 14.0 mph22.5 kmh 29.81 in1009.5 mb 0.00 in0.0 mm 0.00 in0.0 mm 0.41 in10.4 mm
12:00 PM 59.4°F15.2°C 55.5°F13.1°C 87% 10.0 mph SW16.1 kmh SW 15.0 mph24.1 kmh 29.81 in1009.5 mb 0.00 in0.0 mm 0.00 in0.0 mm 0.41 in10.4 mm
11:45 AM 59.0°F15.0°C 55.1°F12.8°C 87% 5.0 mph WSW8.0 kmh WSW 11.0 mph17.7 kmh 29.81 in1009.5 mb 0.00 in0.0 mm 0.00 in0.0 mm 0.41 in10.4 mm
11:30 AM 58.9°F14.9°C 55.0°F12.8°C 87% 10.0 mph WSW16.1 kmh WSW 12.0 mph19.3 kmh 29.81 in1009.5 mb 0.00 in0.0 mm 0.00 in0.0 mm 0.41 in10.4 mm
11:15 AM 58.9°F14.9°C 54.7°F12.6°C 86% 8.0 mph NW12.9 kmh NW 11.0 mph17.7 kmh 29.80 in1009.1 mb 0.00 in0.0 mm 0.00 in0.0 mm 0.41 in10.4 mm
11:00 AM 59.2°F15.1°C 56.0°F13.3°C 89% 6.0 mph W9.7 kmh W 14.0 mph22.5 kmh 29.78 in1008.5 mb 0.02 in0.5 mm 0.00 in0.0 mm 0.41 in10.4 mm
10:45 AM 59.4°F15.2°C 56.5°F13.6°C 90% 7.0 mph W11.3 kmh W 13.0 mph20.9 kmh 29.79 in1008.8 mb 0.02 in0.5 mm 0.00 in0.0 mm 0.41 in10.4 mm
10:30 AM 60.1°F15.6°C 57.5°F14.2°C 91% 8.0 mph NW12.9 kmh NW 15.0 mph24.1 kmh 29.80 in1009.1 mb 0.03 in0.8 mm 0.00 in0.0 mm 0.41 in10.4 mm
10:15 AM 61.0°F16.1°C 59.6°F15.3°C 95% 9.0 mph WSW14.5 kmh WSW 17.0 mph27.4 kmh 29.79 in1008.8 mb 0.03 in0.8 mm 0.00 in0.0 mm 0.41 in10.4 mm
10:00 AM 61.2°F16.2°C 60.1°F15.6°C 96% 11.0 mph WSW17.7 kmh WSW 13.0 mph20.9 kmh 29.78 in1008.5 mb 0.04 in1.0 mm 0.01 in0.3 mm 0.41 in10.4 mm
09:45 AM 60.9°F16.1°C 59.8°F15.4°C 96% 9.0 mph SW14.5 kmh SW 14.0 mph22.5 kmh 29.78 in1008.5 mb 0.03 in0.8 mm 0.00 in0.0 mm 0.40 in10.2 mm
09:30 AM 60.5°F15.8°C 59.4°F15.2°C 96% 8.0 mph WSW12.9 kmh WSW 12.0 mph19.3 kmh 29.78 in1008.5 mb 0.07 in1.8 mm 0.04 in1.0 mm 0.40 in10.2 mm
09:15 AM 60.4°F15.8°C 59.3°F15.2°C 96% 7.0 mph WSW11.3 kmh WSW 10.0 mph16.1 kmh 29.78 in1008.5 mb 0.06 in1.5 mm 0.00 in0.0 mm 0.39 in9.9 mm
09:00 AM 60.5°F15.8°C 59.4°F15.2°C 96% 9.0 mph WSW14.5 kmh WSW 9.0 mph14.5 kmh 29.79 in1008.8 mb 0.07 in1.8 mm 0.01 in0.3 mm 0.39 in9.9 mm
08:45 AM 60.1°F15.6°C 58.4°F14.7°C 94% 4.0 mph WNW6.4 kmh WNW 7.0 mph11.3 kmh 29.79 in1008.8 mb 0.06 in1.5 mm 0.00 in0.0 mm 0.38 in9.7 mm
08:30 AM 60.8°F16.0°C 59.1°F15.1°C 94% 7.0 mph WSW11.3 kmh WSW 14.0 mph22.5 kmh 29.80 in1009.1 mb 0.08 in2.0 mm 0.20 in5.1 mm 0.38 in9.7 mm
08:15 AM 61.2°F16.2°C 59.5°F15.3°C 94% 9.0 mph WSW14.5 kmh WSW 11.0 mph17.7 kmh 29.79 in1008.8 mb 0.03 in0.8 mm 0.00 in0.0 mm 0.33 in8.4 mm
07:45 AM 61.7°F16.5°C 60.0°F15.6°C 94% 9.0 mph SW14.5 kmh SW 14.0 mph22.5 kmh 29.81 in1009.5 mb 0.04 in1.0 mm 0.00 in0.0 mm 0.33 in8.4 mm
07:30 AM 61.9°F16.6°C 60.2°F15.7°C 94% 10.0 mph SW16.1 kmh SW 13.0 mph20.9 kmh 29.81 in1009.5 mb 0.04 in1.0 mm 0.04 in1.0 mm 0.33 in8.4 mm
07:15 AM 62.0°F16.7°C 60.3°F15.7°C 94% 9.0 mph SW14.5 kmh SW 11.0 mph17.7 kmh 29.80 in1009.1 mb 0.03 in0.8 mm 0.00 in0.0 mm 0.32 in8.1 mm
07:00 AM 61.9°F16.6°C 59.6°F15.3°C 92% 10.0 mph SW16.1 kmh SW 13.0 mph20.9 kmh 29.82 in1009.8 mb 0.04 in1.0 mm 0.03 in0.8 mm 0.32 in8.1 mm
06:45 AM 63.1°F17.3°C 60.1°F15.6°C 90% 8.0 mph WSW12.9 kmh WSW 12.0 mph19.3 kmh 29.82 in1009.8 mb 0.02 in0.5 mm 0.00 in0.0 mm 0.30 in7.6 mm
06:30 AM 62.5°F16.9°C 59.8°F15.4°C 91% 6.0 mph S9.7 kmh S 6.0 mph9.7 kmh 29.79 in1008.8 mb 0.02 in0.5 mm 0.00 in0.0 mm 0.30 in7.6 mm
06:15 AM 62.5°F16.9°C 60.2°F15.7°C 92% 4.0 mph WSW6.4 kmh WSW 7.0 mph11.3 kmh 29.81 in1009.5 mb 0.02 in0.5 mm 0.00 in0.0 mm 0.30 in7.6 mm
06:00 AM 62.4°F16.9°C 60.1°F15.6°C 92% 3.0 mph SW4.8 kmh SW 6.0 mph9.7 kmh 29.81 in1009.5 mb 0.02 in0.5 mm 0.03 in0.8 mm 0.30 in7.6 mm
05:45 AM 63.0°F17.2°C 60.6°F15.9°C 92% 5.0 mph SSW8.0 kmh SSW 6.0 mph9.7 kmh 29.81 in1009.5 mb 0.00 in0.0 mm 0.00 in0.0 mm 0.28 in7.1 mm
05:30 AM 63.4°F17.4°C 60.7°F15.9°C 91% 7.0 mph WSW11.3 kmh WSW 8.0 mph12.9 kmh 29.82 in1009.8 mb 0.01 in0.3 mm 0.00 in0.0 mm 0.28 in7.1 mm
05:15 AM 63.9°F17.7°C 61.2°F16.2°C 91% 8.0 mph SW12.9 kmh SW 8.0 mph12.9 kmh 29.81 in1009.5 mb 0.01 in0.3 mm 0.00 in0.0 mm 0.28 in7.1 mm
05:00 AM 63.9°F17.7°C 60.9°F16.1°C 90% 11.0 mph S17.7 kmh S 13.0 mph20.9 kmh 29.81 in1009.5 mb 0.01 in0.3 mm 0.00 in0.0 mm 0.28 in7.1 mm
04:45 AM 63.7°F17.6°C 60.7°F15.9°C 90% 10.0 mph S16.1 kmh S 14.0 mph22.5 kmh 29.82 in1009.8 mb 0.01 in0.3 mm 0.00 in0.0 mm 0.28 in7.1 mm
04:30 AM 63.1°F17.3°C 60.7°F15.9°C 92% 10.0 mph S16.1 kmh S 13.0 mph20.9 kmh 29.83 in1010.2 mb 0.01 in0.3 mm 0.00 in0.0 mm 0.28 in7.1 mm
04:15 AM 62.8°F17.1°C 59.5°F15.3°C 89% 11.0 mph S17.7 kmh S 15.0 mph24.1 kmh 29.84 in1010.5 mb 0.01 in0.3 mm 0.04 in1.0 mm 0.28 in7.1 mm
04:00 AM 63.1°F17.3°C 59.2°F15.1°C 87% 12.0 mph S19.3 kmh S 17.0 mph27.4 kmh 29.85 in1010.8 mb 0.00 in0.0 mm 0.00 in0.0 mm 0.27 in6.9 mm
03:45 AM 63.7°F17.6°C 58.8°F14.9°C 84% 13.0 mph S20.9 kmh S 21.0 mph33.8 kmh 29.86 in1011.2 mb 0.00 in0.0 mm 0.00 in0.0 mm 0.27 in6.9 mm
03:30 AM 63.6°F17.6°C 59.7°F15.4°C 87% 8.0 mph S12.9 kmh S 16.0 mph25.7 kmh 29.86 in1011.2 mb 0.27 in6.9 mm 0.00 in0.0 mm 0.27 in6.9 mm
03:15 AM 63.3°F17.4°C 58.7°F14.8°C 85% 16.0 mph SE25.7 kmh SE 22.0 mph35.4 kmh 29.86 in1011.2 mb 0.27 in6.9 mm 0.00 in0.0 mm 0.27 in6.9 mm
03:00 AM 62.8°F17.1°C 59.2°F15.1°C 88% 15.0 mph SE24.1 kmh SE 22.0 mph35.4 kmh 29.87 in1011.5 mb 0.27 in6.9 mm 0.00 in0.0 mm 0.27 in6.9 mm
02:45 AM 62.3°F16.8°C 59.0°F15.0°C 89% 11.0 mph SE17.7 kmh SE 16.0 mph25.7 kmh 29.89 in1012.2 mb 0.27 in6.9 mm 0.00 in0.0 mm 0.27 in6.9 mm
02:30 AM 62.2°F16.8°C 59.2°F15.1°C 90% 16.0 mph SSE25.7 kmh SSE 20.0 mph32.2 kmh 29.90 in1012.5 mb 0.27 in6.9 mm 0.00 in0.0 mm 0.27 in6.9 mm
02:15 AM 61.3°F16.3°C 58.4°F14.7°C 90% 14.0 mph SE22.5 kmh SE 19.0 mph30.6 kmh 29.91 in1012.9 mb 0.27 in6.9 mm 1.08 in27.4 mm 0.27 in6.9 mm
02:00 AM 63.3°F17.4°C 58.1°F14.5°C 83% 15.0 mph S24.1 kmh S 18.0 mph29.0 kmh 29.92 in1013.2 mb 0.00 in0.0 mm 0.00 in0.0 mm 0.00 in0.0 mm
01:45 AM 63.7°F17.6°C 58.5°F14.7°C 83% 14.0 mph SSE22.5 kmh SSE 18.0 mph29.0 kmh 29.92 in1013.2 mb 0.00 in0.0 mm 0.00 in0.0 mm 0.00 in0.0 mm
01:30 AM 63.5°F17.5°C 57.9°F14.4°C 82% 14.0 mph SE22.5 kmh SE 21.0 mph33.8 kmh 29.92 in1013.2 mb 0.00 in0.0 mm 0.00 in0.0 mm 0.00 in0.0 mm
01:15 AM 63.6°F17.6°C 57.7°F14.3°C 81% 17.0 mph SE27.4 kmh SE 22.0 mph35.4 kmh 29.92 in1013.2 mb 0.00 in0.0 mm 0.00 in0.0 mm 0.00 in0.0 mm
01:00 AM 63.6°F17.6°C 57.7°F14.3°C 81% 15.0 mph SE24.1 kmh SE 22.0 mph35.4 kmh 29.93 in1013.5 mb 0.00 in0.0 mm 0.00 in0.0 mm 0.00 in0.0 mm
12:45 AM 63.6°F17.6°C 57.3°F14.1°C 80% 18.0 mph SE29.0 kmh SE 23.0 mph37.0 kmh 29.93 in1013.5 mb 0.00 in0.0 mm 0.00 in0.0 mm 0.00 in0.0 mm
12:30 AM 63.8°F17.7°C 57.9°F14.4°C 81% 14.0 mph SE22.5 kmh SE 22.0 mph35.4 kmh 29.94 in1013.9 mb 0.00 in0.0 mm 0.00 in0.0 mm 0.00 in0.0 mm
12:00 AM 64.0°F17.8°C 57.4°F14.1°C 79% 21.0 mph SSE33.8 kmh SSE 23.0 mph37.0 kmh 29.96 in1014.6 mb 0.00 in0.0 mm 0.00 in0.0 mm 0.00 in0.0 mm